Kyoto Maru — JD3149 — position and weather

sailwx.info

Track history (hours):
 
Tides and Currents Weather Stations Pressure Air Temp Water Temp Dewpoint Dewpoint Depression Visibility Wind Speed Wind Dir Waves Ship Positions

Kyoto Maru

Last reported at 2017-Jul-28 08:31 UTC. Time now 2017-Jul-28 08:53 UTC.
Position N 35°27' E 139°39'.

Length 34 m; draft 3.8 m.

Type: Tug. MMSI: 431002219.

Date/timePositionNaut miles runAvg speedWind from/ knotsBaromVisibWave heightAir tempDewpointWater temp
2017-Jul-28 08:31N 35°27' E 139°39'0 0.0
2017-Jul-28 08:00N 35°27' E 139°39'0 0.0
2017-Jul-28 07:30N 35°27' E 139°39'0 0.0
2017-Jul-28 07:00N 35°27' E 139°39'1 2.8
2017-Jul-28 06:31N 35°27' E 139°41'1 1.7
2017-Jul-28 06:01N 35°26' E 139°42'0 0.0
2017-Jul-28 05:30N 35°26' E 139°42'0 0.0
2017-Jul-28 05:01N 35°26' E 139°42'0 0.0
2017-Jul-28 04:31N 35°26' E 139°42'0 0.0
2017-Jul-28 04:00N 35°26' E 139°42'0 0.0
2017-Jul-28 03:31N 35°26' E 139°42'0 0.0
2017-Jul-28 03:01N 35°26' E 139°42'0 0.0
2017-Jul-28 02:30N 35°26' E 139°42'0 0.0
2017-Jul-28 02:01N 35°26' E 139°42'0 0.0
2017-Jul-28 01:31N 35°26' E 139°42'0 0.0
2017-Jul-28 01:01N 35°26' E 139°42'0 0.0
2017-Jul-28 00:31N 35°26' E 139°42'0 0.0
2017-Jul-28 00:01N 35°26' E 139°42'1 1.9
2017-Jul-27 23:30N 35°25' E 139°42'3 5.7
2017-Jul-27 23:01N 35°24' E 139°39'1 1.9
2017-Jul-27 22:31N 35°24' E 139°37'1 2.3
2017-Jul-27 22:00N 35°24' E 139°39'2 3.8
2017-Jul-27 21:31N 35°23' E 139°41'0 0.7
2017-Jul-27 21:01N 35°23' E 139°41'4 8.2
2017-Jul-27 20:30N 35°27' E 139°41'1 2.2
2017-Jul-27 20:01N 35°27' E 139°39'0 0.0
2017-Jul-27 19:31N 35°27' E 139°39'0 0.0
2017-Jul-27 19:00N 35°27' E 139°39'0 0.0
2017-Jul-27 18:31N 35°27' E 139°39'0 0.0
2017-Jul-27 18:01N 35°27' E 139°39'0 0.0
2017-Jul-27 17:31N 35°27' E 139°39'0 0.0
2017-Jul-27 17:01N 35°27' E 139°39'0 0.0
2017-Jul-27 16:31N 35°27' E 139°39'0 0.0
2017-Jul-27 16:01N 35°27' E 139°39'0 0.0
2017-Jul-27 15:30N 35°27' E 139°39'0 0.0
2017-Jul-27 15:01N 35°27' E 139°39'0 0.0
2017-Jul-27 14:01N 35°27' E 139°39'0 0.0
2017-Jul-27 13:31N 35°27' E 139°39'0 0.0
2017-Jul-27 13:01N 35°27' E 139°39'0 0.0
2017-Jul-27 12:31N 35°27' E 139°39'0 0.0
2017-Jul-27 12:01N 35°27' E 139°39'0 0.0
2017-Jul-27 11:31N 35°27' E 139°39'0 0.0
2017-Jul-27 11:01N 35°27' E 139°39'0 0.0
2017-Jul-27 10:31N 35°27' E 139°39'0 0.0
2017-Jul-27 10:01N 35°27' E 139°39'0 0.0
2017-Jul-27 09:31N 35°27' E 139°39'0 0.0
2017-Jul-27 09:01N 35°27' E 139°39'0 0.0
2017-Jul-27 08:31N 35°27' E 139°39'0 0.0
2017-Jul-27 08:01N 35°27' E 139°39'0 0.0
2017-Jul-27 07:30N 35°27' E 139°39'0 0.0
2017-Jul-27 07:01N 35°27' E 139°39'2 4.5
2017-Jul-27 06:31N 35°27' E 139°42'0 0.0
2017-Jul-27 06:01N 35°27' E 139°42'0 0.0
2017-Jul-27 05:31N 35°27' E 139°42'0 0.0
2017-Jul-27 05:01N 35°27' E 139°42'0 0.0
2017-Jul-27 04:31N 35°27' E 139°42'0 0.0
2017-Jul-27 04:01N 35°27' E 139°42'0 0.0
2017-Jul-27 03:31N 35°27' E 139°42'0 0.0
2017-Jul-27 03:00N 35°27' E 139°42'0 0.0
2017-Jul-27 02:31N 35°27' E 139°42'0 0.0
2017-Jul-27 02:00N 35°27' E 139°42'0 0.4
2017-Jul-27 01:31N 35°27' E 139°42'1 2.1
2017-Jul-27 01:01N 35°28' E 139°43'0 0.1
2017-Jul-27 00:31N 35°28' E 139°43'1 1.7
2017-Jul-27 00:01N 35°27' E 139°42'0 0.0
2017-Jul-26 23:31N 35°27' E 139°42'0 0.0
2017-Jul-26 23:01N 35°27' E 139°42'0 0.2
2017-Jul-26 22:31N 35°27' E 139°42'3 5.6
2017-Jul-26 22:01N 35°28' E 139°39'0 0.3
2017-Jul-26 21:31N 35°29' E 139°39'2 3.3
2017-Jul-26 21:00N 35°27' E 139°39'0 0.0
2017-Jul-26 20:31N 35°27' E 139°39'0 0.0
2017-Jul-26 20:01N 35°27' E 139°39'0 0.0
2017-Jul-26 19:31N 35°27' E 139°39'0 0.0
2017-Jul-26 19:00N 35°27' E 139°39'0 0.0
2017-Jul-26 18:31N 35°27' E 139°39'0 0.0
2017-Jul-26 18:00N 35°27' E 139°39'0 0.0
2017-Jul-26 17:30N 35°27' E 139°39'0 0.0
2017-Jul-26 17:01N 35°27' E 139°39'0 0.0
2017-Jul-26 16:31N 35°27' E 139°39'0 0.0
2017-Jul-26 16:00N 35°27' E 139°39'0 0.0
2017-Jul-26 15:30N 35°27' E 139°39'0 0.0
2017-Jul-26 15:01N 35°27' E 139°39'0 0.0
2017-Jul-26 14:00N 35°27' E 139°39'0 0.0
2017-Jul-26 13:31N 35°27' E 139°39'0 0.0
2017-Jul-26 13:01N 35°27' E 139°39'0 0.0
2017-Jul-26 12:31N 35°27' E 139°39'0 0.0
2017-Jul-26 12:01N 35°27' E 139°39'0 0.0
2017-Jul-26 11:30N 35°27' E 139°39'0 0.0
2017-Jul-26 11:01N 35°27' E 139°39'0 0.0
2017-Jul-26 10:31N 35°27' E 139°39'0 0.0
2017-Jul-26 10:01N 35°27' E 139°39'0 0.0
2017-Jul-26 09:31N 35°27' E 139°39'0 0.0
2017-Jul-26 09:01N 35°27' E 139°39'0 0.0
2017-Jul-26 08:31N 35°27' E 139°39'2 3.0
2017-Jul-26 08:01N 35°27' E 139°41'1 1.0
2017-Jul-26 07:31N 35°26' E 139°41'2 3.0
2017-Jul-26 07:01N 35°27' E 139°39'0 0.0
2017-Jul-26 06:30N 35°27' E 139°39'0 0.0
2017-Jul-26 06:00N 35°27' E 139°39'0 0.0
2017-Jul-26 05:30N 35°27' E 139°39'0 0.0
2017-Jul-26 05:01N 35°27' E 139°39'1 2.5
2017-Jul-26 04:31N 35°27' E 139°41'0 0.9
2017-Jul-26 04:01N 35°27' E 139°41'1 2.4
2017-Jul-26 03:30N 35°26' E 139°42'2 3.1
2017-Jul-26 03:00N 35°25' E 139°41'0 0.1
2017-Jul-26 02:30N 35°25' E 139°41'1 1.2
2017-Jul-26 02:00N 35°25' E 139°41'1 2.9
2017-Jul-26 01:30N 35°24' E 139°42'2 4.6
2017-Jul-26 01:01N 35°25' E 139°39'0 0.0
2017-Jul-26 00:31N 35°25' E 139°39'0 0.0
2017-Jul-26 00:00N 35°25' E 139°39'0 0.8
2017-Jul-25 23:30N 35°24' E 139°39'2 4.5
2017-Jul-25 23:00N 35°23' E 139°41'0 0.2
2017-Jul-25 22:31N 35°23' E 139°41'4 8.6
2017-Jul-25 22:01N 35°27' E 139°41'1 2.3
2017-Jul-25 21:30N 35°27' E 139°39'0 0.0
2017-Jul-25 21:00N 35°27' E 139°39'0 0.0
2017-Jul-25 20:31N 35°27' E 139°39'0 0.0
2017-Jul-25 20:00N 35°27' E 139°39'0 0.0
2017-Jul-25 19:31N 35°27' E 139°39'0 0.0
2017-Jul-25 19:00N 35°27' E 139°39'0 0.0
2017-Jul-25 18:31N 35°27' E 139°39'0 0.0
2017-Jul-25 18:00N 35°27' E 139°39'0 0.0
2017-Jul-25 17:31N 35°27' E 139°39'0 0.0
2017-Jul-25 17:00N 35°27' E 139°39'0 0.0
2017-Jul-25 16:31N 35°27' E 139°39'0 0.0
2017-Jul-25 16:01N 35°27' E 139°39'0 0.0
2017-Jul-25 15:31N 35°27' E 139°39'0 0.0
2017-Jul-25 15:01N 35°27' E 139°39'0 0.0
2017-Jul-25 14:01N 35°27' E 139°39'0 0.0
2017-Jul-25 13:31N 35°27' E 139°39'0 0.0
2017-Jul-25 13:00N 35°27' E 139°39'0 0.0
2017-Jul-25 12:31N 35°27' E 139°39'0 0.0
2017-Jul-25 12:01N 35°27' E 139°39'0 0.0
2017-Jul-25 11:31N 35°27' E 139°39'0 0.0
2017-Jul-25 11:01N 35°27' E 139°39'1 2.7
2017-Jul-25 10:31N 35°27' E 139°41'3 5.6
2017-Jul-25 10:01N 35°24' E 139°41'0 0.1
2017-Jul-25 09:30N 35°24' E 139°41'1 2.4
2017-Jul-25 09:01N 35°23' E 139°41'1 1.6
2017-Jul-25 08:31N 35°23' E 139°40'0 0.0
2017-Jul-25 08:01N 35°23' E 139°40'0 0.0
2017-Jul-25 07:31N 35°23' E 139°40'0 0.0
2017-Jul-25 07:00N 35°23' E 139°40'1 1.6
2017-Jul-25 06:30N 35°23' E 139°41'2 4.2
2017-Jul-25 06:01N 35°25' E 139°39'0 0.3
2017-Jul-25 05:31N 35°25' E 139°39'3 5.5
2017-Jul-25 05:01N 35°26' E 139°42'1 2.2
2017-Jul-25 04:31N 35°27' E 139°42'0 0.0
2017-Jul-25 04:01N 35°27' E 139°42'0 0.0
2017-Jul-25 03:31N 35°27' E 139°42'0 0.0
2017-Jul-25 03:01N 35°27' E 139°42'0 0.0
2017-Jul-25 02:31N 35°27' E 139°42'0 0.0
2017-Jul-25 02:01N 35°27' E 139°42'0 0.0
2017-Jul-25 01:31N 35°27' E 139°42'0 0.0
2017-Jul-25 01:00N 35°27' E 139°42'0 0.0
2017-Jul-25 00:31N 35°27' E 139°42'0 0.0
2017-Jul-25 00:01N 35°27' E 139°42'0 0.0
2017-Jul-24 23:31N 35°27' E 139°42'0 0.0
2017-Jul-24 23:01N 35°27' E 139°42'1 1.5
2017-Jul-24 22:31N 35°27' E 139°41'0 0.3
2017-Jul-24 22:01N 35°27' E 139°41'2 4.0
2017-Jul-24 21:31N 35°26' E 139°43'1 1.5
2017-Jul-24 21:01N 35°27' E 139°43'3 6.3
2017-Jul-24 20:30N 35°27' E 139°39'0 0.0
2017-Jul-24 20:00N 35°27' E 139°39'0 0.0
2017-Jul-24 19:30N 35°27' E 139°39'0 0.0
2017-Jul-24 19:00N 35°27' E 139°39'0 0.0
2017-Jul-24 18:31N 35°27' E 139°39'0 0.0
2017-Jul-24 18:00N 35°27' E 139°39'0 0.0
2017-Jul-24 17:31N 35°27' E 139°39'0 0.0
2017-Jul-24 17:01N 35°27' E 139°39'0 0.0
2017-Jul-24 16:30N 35°27' E 139°39'0 0.0
2017-Jul-24 16:01N 35°27' E 139°39'0 0.0
2017-Jul-24 13:00N 35°27' E 139°39'0 0.0
2017-Jul-24 12:31N 35°27' E 139°39'0 0.0
2017-Jul-24 12:01N 35°27' E 139°39'0 0.0
2017-Jul-24 11:31N 35°27' E 139°39'0 0.0
2017-Jul-24 11:01N 35°27' E 139°39'0 0.0
2017-Jul-24 10:30N 35°27' E 139°39'0 0.0
2017-Jul-24 10:00N 35°27' E 139°39'0 0.0
2017-Jul-24 09:31N 35°27' E 139°39'2 3.1
2017-Jul-24 09:00N 35°27' E 139°41'1 2.1
2017-Jul-24 08:31N 35°26' E 139°42'0 0.7
2017-Jul-24 08:00N 35°26' E 139°42'2 4.4
2017-Jul-24 07:31N 35°27' E 139°39'0 0.0
2017-Jul-24 07:00N 35°27' E 139°39'0 0.0
2017-Jul-24 06:30N 35°27' E 139°39'0 0.0
2017-Jul-24 06:00N 35°27' E 139°39'0 0.0
2017-Jul-24 05:30N 35°27' E 139°39'0 0.0
2017-Jul-24 05:00N 35°27' E 139°39'0 0.0
2017-Jul-24 04:30N 35°27' E 139°39'0 0.0
2017-Jul-24 04:01N 35°27' E 139°39'2 4.9
2017-Jul-24 03:30N 35°26' E 139°42'2 4.0
2017-Jul-24 03:01N 35°24' E 139°41'0 0.9
2017-Jul-24 02:30N 35°24' E 139°41'1 2.7
2017-Jul-24 02:00N 35°25' E 139°42'3 5.3
2017-Jul-24 01:30N 35°27' E 139°39'0 0.1
2017-Jul-24 01:00N 35°27' E 139°39'0 0.1
2017-Jul-24 00:30N 35°27' E 139°39'0 0.1
2017-Jul-24 00:00N 35°27' E 139°39'0 0.1
2017-Jul-23 23:30N 35°27' E 139°39'0 0.0
2017-Jul-23 23:01N 35°27' E 139°39'0 0.1
2017-Jul-23 22:30N 35°27' E 139°39'0 0.1
2017-Jul-23 22:00N 35°27' E 139°39'0 0.1
2017-Jul-23 21:30N 35°27' E 139°39'0 0.1
2017-Jul-23 21:00N 35°27' E 139°39'0 0.0
2017-Jul-23 20:30N 35°27' E 139°39'0 0.0
2017-Jul-23 20:00N 35°27' E 139°39'0 0.0
2017-Jul-23 19:30N 35°27' E 139°39'0 0.1
2017-Jul-23 19:00N 35°27' E 139°39'0 0.1
2017-Jul-23 18:30N 35°27' E 139°39'0 0.0
2017-Jul-23 18:00N 35°27' E 139°39'0 0.0
2017-Jul-23 17:30N 35°27' E 139°39'0 0.0
2017-Jul-23 17:00N 35°27' E 139°39'0 0.0
2017-Jul-23 16:30N 35°27' E 139°39'0 0.0
2017-Jul-23 16:00N 35°27' E 139°39'0 0.0
2017-Jul-23 15:30N 35°27' E 139°39'0 0.0
2017-Jul-23 15:00N 35°27' E 139°39'0 0.0
2017-Jul-23 14:30N 35°27' E 139°39'0 0.1
2017-Jul-23 14:00N 35°27' E 139°39'0 0.1
2017-Jul-23 13:30N 35°27' E 139°39'0 0.1
2017-Jul-23 13:01N 35°27' E 139°39'0 0.1
2017-Jul-23 12:30N 35°27' E 139°39'0 0.0
2017-Jul-23 12:00N 35°27' E 139°39'0 0.0
2017-Jul-23 11:30N 35°27' E 139°39'0 0.0
2017-Jul-23 11:01N 35°27' E 139°39'0 0.1
2017-Jul-23 10:30N 35°27' E 139°39'0 0.0
2017-Jul-23 10:00N 35°27' E 139°39'0 0.1
2017-Jul-23 09:31N 35°27' E 139°39'0 0.0
2017-Jul-23 09:00N 35°27' E 139°39'0 0.0
2017-Jul-23 08:31N 35°27' E 139°39'0 0.1
2017-Jul-23 08:00N 35°27' E 139°39'0 0.1
2017-Jul-23 07:30N 35°27' E 139°39'0 0.1
2017-Jul-23 07:00N 35°27' E 139°39'0 0.0
2017-Jul-23 06:30N 35°27' E 139°39'0 0.1
2017-Jul-23 06:00N 35°27' E 139°39'0 0.0
2017-Jul-23 05:30N 35°27' E 139°39'0 0.0
2017-Jul-23 05:00N 35°27' E 139°39'0 0.0
2017-Jul-23 04:30N 35°27' E 139°39'0 0.0
2017-Jul-23 04:01N 35°27' E 139°39'0 0.1
2017-Jul-23 03:31N 35°27' E 139°39'0 0.1
2017-Jul-23 03:00N 35°27' E 139°39'0 0.0
2017-Jul-23 02:30N 35°27' E 139°39'0 0.0
2017-Jul-23 02:00N 35°27' E 139°39'0 0.0
2017-Jul-23 01:30N 35°27' E 139°39'0 0.0
2017-Jul-23 01:00N 35°27' E 139°39'0 0.1
2017-Jul-23 00:31N 35°27' E 139°39'0 0.0
2017-Jul-23 00:00N 35°27' E 139°39'0 0.1
2017-Jul-22 23:30N 35°27' E 139°39'1 2.8
2017-Jul-22 23:00N 35°26' E 139°41'1 2.1
2017-Jul-22 22:30N 35°26' E 139°42'2 4.6
2017-Jul-22 22:01N 35°27' E 139°45'1 1.6
2017-Jul-22 21:30N 35°28' E 139°44'0 0.0
2017-Jul-22 21:00N 35°28' E 139°44'0 0.0
2017-Jul-22 20:30N 35°28' E 139°44'0 0.0
2017-Jul-22 20:00N 35°28' E 139°44'0 0.0
2017-Jul-22 19:30N 35°28' E 139°44'4 7.8
2017-Jul-22 19:00N 35°24' E 139°42'1 1.8
2017-Jul-22 18:30N 35°24' E 139°41'1 1.9
2017-Jul-22 18:00N 35°23' E 139°40'0 0.0
2017-Jul-22 17:31N 35°23' E 139°40'0 0.0
2017-Jul-22 17:00N 35°23' E 139°40'0 0.0
2017-Jul-22 16:31N 35°23' E 139°40'1 1.0
2017-Jul-22 16:01N 35°24' E 139°40'1 1.1
2017-Jul-22 15:30N 35°24' E 139°41'0 0.1
2017-Jul-22 15:01N 35°24' E 139°41'1 1.1
2017-Jul-22 14:00N 35°23' E 139°40'0 0.0
2017-Jul-22 13:31N 35°23' E 139°40'0 0.0
2017-Jul-22 13:00N 35°23' E 139°40'0 0.0
2017-Jul-22 12:30N 35°23' E 139°40'0 0.0
2017-Jul-22 12:00N 35°23' E 139°40'0 0.0
2017-Jul-22 11:30N 35°23' E 139°40'0 0.0
2017-Jul-22 11:00N 35°23' E 139°40'4 8.0
2017-Jul-22 10:30N 35°27' E 139°41'1 2.9
2017-Jul-22 10:01N 35°28' E 139°42'1 1.4
2017-Jul-22 09:31N 35°28' E 139°41'1 2.2
2017-Jul-22 09:00N 35°28' E 139°42'0 0.0
2017-Jul-22 08:30N 35°28' E 139°42'0 0.0
2017-Jul-22 08:00N 35°28' E 139°42'0 0.0
2017-Jul-22 07:31N 35°28' E 139°42'1 2.6
2017-Jul-22 07:00N 35°27' E 139°41'0 0.5
2017-Jul-22 06:30N 35°26' E 139°41'1 2.7
2017-Jul-22 06:00N 35°27' E 139°39'0 0.0
2017-Jul-22 05:30N 35°27' E 139°39'0 0.0
2017-Jul-22 05:00N 35°27' E 139°39'0 0.0
2017-Jul-22 04:30N 35°27' E 139°39'0 0.0
2017-Jul-22 04:00N 35°27' E 139°39'0 0.0
2017-Jul-22 03:31N 35°27' E 139°39'0 0.0
2017-Jul-22 03:00N 35°27' E 139°39'0 0.0
2017-Jul-22 02:30N 35°27' E 139°39'0 0.0
2017-Jul-22 02:01N 35°27' E 139°39'0 0.0
2017-Jul-22 01:30N 35°27' E 139°39'0 0.0
2017-Jul-22 01:00N 35°27' E 139°39'0 0.0
2017-Jul-22 00:31N 35°27' E 139°39'0 0.0
2017-Jul-22 00:00N 35°27' E 139°39'0 0.0
2017-Jul-21 23:30N 35°27' E 139°39'0 0.0
2017-Jul-21 23:00N 35°27' E 139°39'0 0.0
2017-Jul-21 22:30N 35°27' E 139°39'0 0.0
2017-Jul-21 22:00N 35°27' E 139°39'0 0.0
2017-Jul-21 21:30N 35°27' E 139°39'0 0.0
2017-Jul-21 21:00N 35°27' E 139°39'0 0.0
2017-Jul-21 20:31N 35°27' E 139°39'0 0.0
2017-Jul-21 20:01N 35°27' E 139°39'0 0.0
2017-Jul-21 19:30N 35°27' E 139°39'0 0.0
2017-Jul-21 19:01N 35°27' E 139°39'0 0.0
2017-Jul-21 18:30N 35°27' E 139°39'0 0.0
2017-Jul-21 18:00N 35°27' E 139°39'0 0.0
2017-Jul-21 17:30N 35°27' E 139°39'0 0.0
2017-Jul-21 17:00N 35°27' E 139°39'0 0.0
2017-Jul-21 16:30N 35°27' E 139°39'0 0.0
2017-Jul-21 16:00N 35°27' E 139°39'0 0.0
2017-Jul-21 15:30N 35°27' E 139°39'0 0.0
2017-Jul-21 15:00N 35°27' E 139°39'0 0.0
2017-Jul-21 14:30N 35°27' E 139°39'0 0.0
2017-Jul-21 14:00N 35°27' E 139°39'0 0.0
2017-Jul-21 13:30N 35°27' E 139°39'0 0.0
2017-Jul-21 13:00N 35°27' E 139°39'0 0.0
2017-Jul-21 12:30N 35°27' E 139°39'0 0.0
2017-Jul-21 12:00N 35°27' E 139°39'0 0.0
2017-Jul-21 11:30N 35°27' E 139°39'0 0.0
2017-Jul-21 11:00N 35°27' E 139°39'0 0.0
2017-Jul-21 10:30N 35°27' E 139°39'0 0.0
2017-Jul-21 10:00N 35°27' E 139°39'0 0.0
2017-Jul-21 09:30N 35°27' E 139°39'0 0.0
2017-Jul-21 09:00N 35°27' E 139°39'0 0.0
2017-Jul-21 08:30N 35°27' E 139°39'0 0.0
2017-Jul-21 08:00N 35°27' E 139°39'0 0.0
2017-Jul-21 07:30N 35°27' E 139°39'0 0.0
2017-Jul-21 07:00N 35°27' E 139°39'0 0.0
2017-Jul-21 06:30N 35°27' E 139°39'0 0.0
2017-Jul-21 06:00N 35°27' E 139°39'0 0.0
2017-Jul-21 05:30N 35°27' E 139°39'0 0.0
2017-Jul-21 05:00N 35°27' E 139°39'0 0.0
2017-Jul-21 04:30N 35°27' E 139°39'0 0.0
2017-Jul-21 04:00N 35°27' E 139°39'0 0.0
2017-Jul-21 03:30N 35°27' E 139°39'0 0.4
2017-Jul-21 03:00N 35°27' E 139°39'0 0.1
2017-Jul-21 02:30N 35°27' E 139°39'0 0.0
2017-Jul-21 02:00N 35°27' E 139°39'2 4.7
2017-Jul-21 01:30N 35°29' E 139°42'2 3.5
2017-Jul-21 01:00N 35°30' E 139°43'0 0.3
2017-Jul-21 00:30N 35°30' E 139°43'2 3.8
2017-Jul-21 00:00N 35°28' E 139°42'1 1.8
2017-Jul-20 23:30N 35°27' E 139°42'2 4.8
2017-Jul-20 23:00N 35°27' E 139°39'0 0.0
2017-Jul-20 22:30N 35°27' E 139°39'0 0.1
2017-Jul-20 22:00N 35°27' E 139°39'0 0.0
2017-Jul-20 21:30N 35°27' E 139°39'0 0.1
2017-Jul-20 21:01N 35°27' E 139°39'0 0.1
2017-Jul-20 20:30N 35°27' E 139°39'0 0.0
2017-Jul-20 20:00N 35°27' E 139°39'0 0.1
2017-Jul-20 19:30N 35°27' E 139°39'0 0.1
2017-Jul-20 19:00N 35°27' E 139°39'0 0.1
2017-Jul-20 18:30N 35°27' E 139°39'0 0.1
2017-Jul-20 18:00N 35°27' E 139°39'0 0.1
2017-Jul-20 17:30N 35°27' E 139°39'0 0.0
2017-Jul-20 17:00N 35°27' E 139°39'0 0.1
2017-Jul-20 16:30N 35°27' E 139°39'0 0.1
2017-Jul-20 16:00N 35°27' E 139°39'0 0.0
2017-Jul-20 15:30N 35°27' E 139°39'0 0.0
2017-Jul-20 15:00N 35°27' E 139°39'0 0.0
2017-Jul-20 14:00N 35°27' E 139°39'0 0.0
2017-Jul-20 13:30N 35°27' E 139°39'0 0.1
2017-Jul-20 13:01N 35°27' E 139°39'0 0.0
2017-Jul-20 12:30N 35°27' E 139°39'0 0.1
2017-Jul-20 12:00N 35°27' E 139°39'0 0.0
2017-Jul-20 11:30N 35°27' E 139°39'0 0.0
2017-Jul-20 11:00N 35°27' E 139°39'0 0.0
2017-Jul-20 10:30N 35°27' E 139°39'0 0.1
2017-Jul-20 10:00N 35°27' E 139°39'0 0.7
2017-Jul-20 09:30N 35°27' E 139°39'1 2.8
2017-Jul-20 09:00N 35°26' E 139°41'1 2.1
2017-Jul-20 08:30N 35°27' E 139°42'0 0.6
2017-Jul-20 08:01N 35°27' E 139°42'0 0.0
2017-Jul-20 07:30N 35°27' E 139°42'0 0.0
2017-Jul-20 07:00N 35°27' E 139°42'0 0.7
2017-Jul-20 06:30N 35°27' E 139°42'0 0.7
2017-Jul-20 06:00N 35°27' E 139°41'2 3.5
2017-Jul-20 05:30N 35°26' E 139°43'1 2.6
2017-Jul-20 05:01N 35°26' E 139°42'2 4.0
2017-Jul-20 04:30N 35°27' E 139°39'0 0.0
2017-Jul-20 04:01N 35°27' E 139°39'0 0.0
2017-Jul-20 03:30N 35°27' E 139°39'0 0.0
2017-Jul-20 03:00N 35°27' E 139°39'0 0.0
2017-Jul-20 02:30N 35°27' E 139°39'0 0.0
2017-Jul-20 02:00N 35°27' E 139°39'0 0.0
2017-Jul-20 01:30N 35°27' E 139°39'0 0.0
2017-Jul-20 01:00N 35°27' E 139°39'0 0.0
2017-Jul-20 00:30N 35°27' E 139°39'0 0.0
2017-Jul-20 00:00N 35°27' E 139°39'0 0.0
2017-Jul-19 23:30N 35°27' E 139°39'2 3.7
2017-Jul-19 23:00N 35°28' E 139°41'0 0.6
2017-Jul-19 22:30N 35°28' E 139°41'2 3.5
2017-Jul-19 22:00N 35°27' E 139°43'1 2.1
2017-Jul-19 21:31N 35°27' E 139°44'2 4.5
2017-Jul-19 21:00N 35°27' E 139°41'1 2.4
2017-Jul-19 20:30N 35°27' E 139°40'0 0.0
2017-Jul-19 20:00N 35°27' E 139°40'0 0.0
2017-Jul-19 19:30N 35°27' E 139°40'0 0.0
2017-Jul-19 19:01N 35°27' E 139°40'0 0.0
2017-Jul-19 18:31N 35°27' E 139°40'0 0.0
2017-Jul-19 18:00N 35°27' E 139°40'0 0.0
2017-Jul-19 17:31N 35°27' E 139°40'0 0.0
2017-Jul-19 17:00N 35°27' E 139°40'0 0.0
2017-Jul-19 16:30N 35°27' E 139°40'0 0.0
2017-Jul-19 16:00N 35°27' E 139°40'0 0.0
2017-Jul-19 15:30N 35°27' E 139°40'0 0.0
2017-Jul-19 15:00N 35°27' E 139°40'0 0.0
2017-Jul-19 14:30N 35°27' E 139°40'0 0.0
2017-Jul-19 14:00N 35°27' E 139°40'0 0.0
2017-Jul-19 13:30N 35°27' E 139°40'0 0.0
2017-Jul-19 13:01N 35°27' E 139°40'0 0.0
2017-Jul-19 12:31N 35°27' E 139°40'0 0.0
2017-Jul-19 12:00N 35°27' E 139°40'0 0.0
2017-Jul-19 11:30N 35°27' E 139°40'0 0.0
2017-Jul-19 11:00N 35°27' E 139°40'0 0.0
2017-Jul-19 10:30N 35°27' E 139°40'0 0.0
2017-Jul-19 10:00N 35°27' E 139°40'0 0.0
2017-Jul-19 09:30N 35°27' E 139°40'0 0.0
2017-Jul-19 09:00N 35°27' E 139°40'0 0.0
2017-Jul-19 08:30N 35°27' E 139°40'2 3.8
2017-Jul-19 08:00N 35°27' E 139°42'3 5.5
2017-Jul-19 07:30N 35°29' E 139°45'0 0.1
2017-Jul-19 07:01N 35°29' E 139°45'1 1.7
2017-Jul-19 06:31N 35°29' E 139°46'0 0.0
2017-Jul-19 06:00N 35°29' E 139°46'0 0.1
2017-Jul-19 05:30N 35°29' E 139°46'1 2.7
2017-Jul-19 05:00N 35°29' E 139°47'0 0.0
2017-Jul-19 04:30N 35°29' E 139°47'0 0.0
2017-Jul-19 04:00N 35°29' E 139°47'0 0.2
2017-Jul-19 03:30N 35°29' E 139°47'0 0.2
2017-Jul-19 03:00N 35°29' E 139°47'1 1.7
2017-Jul-19 02:31N 35°28' E 139°47'2 4.0
2017-Jul-19 02:00N 35°27' E 139°46'1 2.6
2017-Jul-19 01:31N 35°26' E 139°44'2 4.0
2017-Jul-19 01:00N 35°27' E 139°42'2 3.7
2017-Jul-19 00:30N 35°27' E 139°40'0 0.0
2017-Jul-19 00:01N 35°27' E 139°40'0 0.0
2017-Jul-18 23:30N 35°27' E 139°40'0 0.0
2017-Jul-18 23:00N 35°27' E 139°40'0 0.0
2017-Jul-18 22:30N 35°27' E 139°40'0 0.0
2017-Jul-18 22:00N 35°27' E 139°40'0 0.0
2017-Jul-18 21:30N 35°27' E 139°40'0 0.0
2017-Jul-18 21:01N 35°27' E 139°40'0 0.0
2017-Jul-18 20:30N 35°27' E 139°40'0 0.0
2017-Jul-18 20:00N 35°27' E 139°40'0 0.0
2017-Jul-18 19:30N 35°27' E 139°40'0 0.0
2017-Jul-18 19:00N 35°27' E 139°40'0 0.0
2017-Jul-18 18:30N 35°27' E 139°40'0 0.0
2017-Jul-18 18:00N 35°27' E 139°40'0 0.0
2017-Jul-18 17:30N 35°27' E 139°40'0 0.0
2017-Jul-18 17:00N 35°27' E 139°40'0 0.0
2017-Jul-18 16:30N 35°27' E 139°40'0 0.0
2017-Jul-18 16:01N 35°27' E 139°40'0 0.0
2017-Jul-18 15:30N 35°27' E 139°40'0 0.0
2017-Jul-18 15:00N 35°27' E 139°40'0 0.0
2017-Jul-18 14:00N 35°27' E 139°40'0 0.0
2017-Jul-18 13:30N 35°27' E 139°40'0 0.0
2017-Jul-18 13:00N 35°27' E 139°40'0 0.0
2017-Jul-18 12:30N 35°27' E 139°40'0 0.0
2017-Jul-18 12:00N 35°27' E 139°40'0 0.0
2017-Jul-18 11:30N 35°27' E 139°40'0 0.0
2017-Jul-18 11:00N 35°27' E 139°40'0 0.0
2017-Jul-18 10:30N 35°27' E 139°40'0 0.0
2017-Jul-18 10:00N 35°27' E 139°40'0 0.0
2017-Jul-18 09:30N 35°27' E 139°40'0 0.0
2017-Jul-18 09:00N 35°27' E 139°40'  
Track history (hours):
 
Tides and Currents Weather Stations Pressure Air Temp Water Temp Dewpoint Dewpoint Depression Visibility Wind Speed Wind Dir Waves Ship Positions

Kyoto Maru

Last reported at 2017-Jul-28 08:31 UTC. Time now 2017-Jul-28 08:53 UTC.
Position N 35°27' E 139°39'.

Length 34 m; draft 3.8 m.

Type: Tug. MMSI: 431002219.

Date/timePositionNaut miles runAvg speedWind from/ knotsBaromVisibWave heightAir tempDewpointWater temp
2017-Jul-28 08:31N 35°27' E 139°39'0 0.0
2017-Jul-28 08:00N 35°27' E 139°39'0 0.0
2017-Jul-28 07:30N 35°27' E 139°39'0 0.0
2017-Jul-28 07:00N 35°27' E 139°39'1 2.8
2017-Jul-28 06:31N 35°27' E 139°41'1 1.7
2017-Jul-28 06:01N 35°26' E 139°42'0 0.0
2017-Jul-28 05:30N 35°26' E 139°42'0 0.0
2017-Jul-28 05:01N 35°26' E 139°42'0 0.0
2017-Jul-28 04:31N 35°26' E 139°42'0 0.0
2017-Jul-28 04:00N 35°26' E 139°42'0 0.0
2017-Jul-28 03:31N 35°26' E 139°42'0 0.0
2017-Jul-28 03:01N 35°26' E 139°42'0 0.0
2017-Jul-28 02:30N 35°26' E 139°42'0 0.0
2017-Jul-28 02:01N 35°26' E 139°42'0 0.0
2017-Jul-28 01:31N 35°26' E 139°42'0 0.0
2017-Jul-28 01:01N 35°26' E 139°42'0 0.0
2017-Jul-28 00:31N 35°26' E 139°42'0 0.0
2017-Jul-28 00:01N 35°26' E 139°42'1 1.9
2017-Jul-27 23:30N 35°25' E 139°42'3 5.7
2017-Jul-27 23:01N 35°24' E 139°39'1 1.9
2017-Jul-27 22:31N 35°24' E 139°37'1 2.3
2017-Jul-27 22:00N 35°24' E 139°39'2 3.8
2017-Jul-27 21:31N 35°23' E 139°41'0 0.7
2017-Jul-27 21:01N 35°23' E 139°41'4 8.2
2017-Jul-27 20:30N 35°27' E 139°41'1 2.2
2017-Jul-27 20:01N 35°27' E 139°39'0 0.0
2017-Jul-27 19:31N 35°27' E 139°39'0 0.0
2017-Jul-27 19:00N 35°27' E 139°39'0 0.0
2017-Jul-27 18:31N 35°27' E 139°39'0 0.0
2017-Jul-27 18:01N 35°27' E 139°39'0 0.0
2017-Jul-27 17:31N 35°27' E 139°39'0 0.0
2017-Jul-27 17:01N 35°27' E 139°39'0 0.0
2017-Jul-27 16:31N 35°27' E 139°39'0 0.0
2017-Jul-27 16:01N 35°27' E 139°39'0 0.0
2017-Jul-27 15:30N 35°27' E 139°39'0 0.0
2017-Jul-27 15:01N 35°27' E 139°39'0 0.0
2017-Jul-27 14:01N 35°27' E 139°39'0 0.0
2017-Jul-27 13:31N 35°27' E 139°39'0 0.0
2017-Jul-27 13:01N 35°27' E 139°39'0 0.0
2017-Jul-27 12:31N 35°27' E 139°39'0 0.0
2017-Jul-27 12:01N 35°27' E 139°39'0 0.0
2017-Jul-27 11:31N 35°27' E 139°39'0 0.0
2017-Jul-27 11:01N 35°27' E 139°39'0 0.0
2017-Jul-27 10:31N 35°27' E 139°39'0 0.0
2017-Jul-27 10:01N 35°27' E 139°39'0 0.0
2017-Jul-27 09:31N 35°27' E 139°39'0 0.0
2017-Jul-27 09:01N 35°27' E 139°39'0 0.0
2017-Jul-27 08:31N 35°27' E 139°39'0 0.0
2017-Jul-27 08:01N 35°27' E 139°39'0 0.0
2017-Jul-27 07:30N 35°27' E 139°39'0 0.0
2017-Jul-27 07:01N 35°27' E 139°39'2 4.5
2017-Jul-27 06:31N 35°27' E 139°42'0 0.0
2017-Jul-27 06:01N 35°27' E 139°42'0 0.0
2017-Jul-27 05:31N 35°27' E 139°42'0 0.0
2017-Jul-27 05:01N 35°27' E 139°42'0 0.0
2017-Jul-27 04:31N 35°27' E 139°42'0 0.0
2017-Jul-27 04:01N 35°27' E 139°42'0 0.0
2017-Jul-27 03:31N 35°27' E 139°42'0 0.0
2017-Jul-27 03:00N 35°27' E 139°42'0 0.0
2017-Jul-27 02:31N 35°27' E 139°42'0 0.0
2017-Jul-27 02:00N 35°27' E 139°42'0 0.4
2017-Jul-27 01:31N 35°27' E 139°42'1 2.1
2017-Jul-27 01:01N 35°28' E 139°43'0 0.1
2017-Jul-27 00:31N 35°28' E 139°43'1 1.7
2017-Jul-27 00:01N 35°27' E 139°42'0 0.0
2017-Jul-26 23:31N 35°27' E 139°42'0 0.0
2017-Jul-26 23:01N 35°27' E 139°42'0 0.2
2017-Jul-26 22:31N 35°27' E 139°42'3 5.6
2017-Jul-26 22:01N 35°28' E 139°39'0 0.3
2017-Jul-26 21:31N 35°29' E 139°39'2 3.3
2017-Jul-26 21:00N 35°27' E 139°39'0 0.0
2017-Jul-26 20:31N 35°27' E 139°39'0 0.0
2017-Jul-26 20:01N 35°27' E 139°39'0 0.0
2017-Jul-26 19:31N 35°27' E 139°39'0 0.0
2017-Jul-26 19:00N 35°27' E 139°39'0 0.0
2017-Jul-26 18:31N 35°27' E 139°39'0 0.0
2017-Jul-26 18:00N 35°27' E 139°39'0 0.0
2017-Jul-26 17:30N 35°27' E 139°39'0 0.0
2017-Jul-26 17:01N 35°27' E 139°39'0 0.0
2017-Jul-26 16:31N 35°27' E 139°39'0 0.0
2017-Jul-26 16:00N 35°27' E 139°39'0 0.0
2017-Jul-26 15:30N 35°27' E 139°39'0 0.0
2017-Jul-26 15:01N 35°27' E 139°39'0 0.0
2017-Jul-26 14:00N 35°27' E 139°39'0 0.0
2017-Jul-26 13:31N 35°27' E 139°39'0 0.0
2017-Jul-26 13:01N 35°27' E 139°39'0 0.0
2017-Jul-26 12:31N 35°27' E 139°39'0 0.0
2017-Jul-26 12:01N 35°27' E 139°39'0 0.0
2017-Jul-26 11:30N 35°27' E 139°39'0 0.0
2017-Jul-26 11:01N 35°27' E 139°39'0 0.0
2017-Jul-26 10:31N 35°27' E 139°39'0 0.0
2017-Jul-26 10:01N 35°27' E 139°39'0 0.0
2017-Jul-26 09:31N 35°27' E 139°39'0 0.0
2017-Jul-26 09:01N 35°27' E 139°39'0 0.0
2017-Jul-26 08:31N 35°27' E 139°39'2 3.0
2017-Jul-26 08:01N 35°27' E 139°41'1 1.0
2017-Jul-26 07:31N 35°26' E 139°41'2 3.0
2017-Jul-26 07:01N 35°27' E 139°39'0 0.0
2017-Jul-26 06:30N 35°27' E 139°39'0 0.0
2017-Jul-26 06:00N 35°27' E 139°39'0 0.0
2017-Jul-26 05:30N 35°27' E 139°39'0 0.0
2017-Jul-26 05:01N 35°27' E 139°39'1 2.5
2017-Jul-26 04:31N 35°27' E 139°41'0 0.9
2017-Jul-26 04:01N 35°27' E 139°41'1 2.4
2017-Jul-26 03:30N 35°26' E 139°42'2 3.1
2017-Jul-26 03:00N 35°25' E 139°41'0 0.1
2017-Jul-26 02:30N 35°25' E 139°41'1 1.2
2017-Jul-26 02:00N 35°25' E 139°41'1 2.9
2017-Jul-26 01:30N 35°24' E 139°42'2 4.6
2017-Jul-26 01:01N 35°25' E 139°39'0 0.0
2017-Jul-26 00:31N 35°25' E 139°39'0 0.0
2017-Jul-26 00:00N 35°25' E 139°39'0 0.8
2017-Jul-25 23:30N 35°24' E 139°39'2 4.5
2017-Jul-25 23:00N 35°23' E 139°41'0 0.2
2017-Jul-25 22:31N 35°23' E 139°41'4 8.6
2017-Jul-25 22:01N 35°27' E 139°41'1 2.3
2017-Jul-25 21:30N 35°27' E 139°39'0 0.0
2017-Jul-25 21:00N 35°27' E 139°39'0 0.0
2017-Jul-25 20:31N 35°27' E 139°39'0 0.0
2017-Jul-25 20:00N 35°27' E 139°39'0 0.0
2017-Jul-25 19:31N 35°27' E 139°39'0 0.0
2017-Jul-25 19:00N 35°27' E 139°39'0 0.0
2017-Jul-25 18:31N 35°27' E 139°39'0 0.0
2017-Jul-25 18:00N 35°27' E 139°39'0 0.0
2017-Jul-25 17:31N 35°27' E 139°39'0 0.0
2017-Jul-25 17:00N 35°27' E 139°39'0 0.0
2017-Jul-25 16:31N 35°27' E 139°39'0 0.0
2017-Jul-25 16:01N 35°27' E 139°39'0 0.0
2017-Jul-25 15:31N 35°27' E 139°39'0 0.0
2017-Jul-25 15:01N 35°27' E 139°39'0 0.0
2017-Jul-25 14:01N 35°27' E 139°39'0 0.0
2017-Jul-25 13:31N 35°27' E 139°39'0 0.0
2017-Jul-25 13:00N 35°27' E 139°39'0 0.0
2017-Jul-25 12:31N 35°27' E 139°39'0 0.0
2017-Jul-25 12:01N 35°27' E 139°39'0 0.0
2017-Jul-25 11:31N 35°27' E 139°39'0 0.0
2017-Jul-25 11:01N 35°27' E 139°39'1 2.7
2017-Jul-25 10:31N 35°27' E 139°41'3 5.6
2017-Jul-25 10:01N 35°24' E 139°41'0 0.1
2017-Jul-25 09:30N 35°24' E 139°41'1 2.4
2017-Jul-25 09:01N 35°23' E 139°41'1 1.6
2017-Jul-25 08:31N 35°23' E 139°40'0 0.0
2017-Jul-25 08:01N 35°23' E 139°40'0 0.0
2017-Jul-25 07:31N 35°23' E 139°40'0 0.0
2017-Jul-25 07:00N 35°23' E 139°40'1 1.6
2017-Jul-25 06:30N 35°23' E 139°41'2 4.2
2017-Jul-25 06:01N 35°25' E 139°39'0 0.3
2017-Jul-25 05:31N 35°25' E 139°39'3 5.5
2017-Jul-25 05:01N 35°26' E 139°42'1 2.2
2017-Jul-25 04:31N 35°27' E 139°42'0 0.0
2017-Jul-25 04:01N 35°27' E 139°42'0 0.0
2017-Jul-25 03:31N 35°27' E 139°42'0 0.0
2017-Jul-25 03:01N 35°27' E 139°42'0 0.0
2017-Jul-25 02:31N 35°27' E 139°42'0 0.0
2017-Jul-25 02:01N 35°27' E 139°42'0 0.0
2017-Jul-25 01:31N 35°27' E 139°42'0 0.0
2017-Jul-25 01:00N 35°27' E 139°42'0 0.0
2017-Jul-25 00:31N 35°27' E 139°42'0 0.0
2017-Jul-25 00:01N 35°27' E 139°42'0 0.0
2017-Jul-24 23:31N 35°27' E 139°42'0 0.0
2017-Jul-24 23:01N 35°27' E 139°42'1 1.5
2017-Jul-24 22:31N 35°27' E 139°41'0 0.3
2017-Jul-24 22:01N 35°27' E 139°41'2 4.0
2017-Jul-24 21:31N 35°26' E 139°43'1 1.5
2017-Jul-24 21:01N 35°27' E 139°43'3 6.3
2017-Jul-24 20:30N 35°27' E 139°39'0 0.0
2017-Jul-24 20:00N 35°27' E 139°39'0 0.0
2017-Jul-24 19:30N 35°27' E 139°39'0 0.0
2017-Jul-24 19:00N 35°27' E 139°39'0 0.0
2017-Jul-24 18:31N 35°27' E 139°39'0 0.0
2017-Jul-24 18:00N 35°27' E 139°39'0 0.0
2017-Jul-24 17:31N 35°27' E 139°39'0 0.0
2017-Jul-24 17:01N 35°27' E 139°39'0 0.0
2017-Jul-24 16:30N 35°27' E 139°39'0 0.0
2017-Jul-24 16:01N 35°27' E 139°39'0 0.0
2017-Jul-24 13:00N 35°27' E 139°39'0 0.0
2017-Jul-24 12:31N 35°27' E 139°39'0 0.0
2017-Jul-24 12:01N 35°27' E 139°39'0 0.0
2017-Jul-24 11:31N 35°27' E 139°39'0 0.0
2017-Jul-24 11:01N 35°27' E 139°39'0 0.0
2017-Jul-24 10:30N 35°27' E 139°39'0 0.0
2017-Jul-24 10:00N 35°27' E 139°39'0 0.0
2017-Jul-24 09:31N 35°27' E 139°39'2 3.1
2017-Jul-24 09:00N 35°27' E 139°41'1 2.1
2017-Jul-24 08:31N 35°26' E 139°42'0 0.7
2017-Jul-24 08:00N 35°26' E 139°42'2 4.4
2017-Jul-24 07:31N 35°27' E 139°39'0 0.0
2017-Jul-24 07:00N 35°27' E 139°39'0 0.0
2017-Jul-24 06:30N 35°27' E 139°39'0 0.0
2017-Jul-24 06:00N 35°27' E 139°39'0 0.0
2017-Jul-24 05:30N 35°27' E 139°39'0 0.0
2017-Jul-24 05:00N 35°27' E 139°39'0 0.0
2017-Jul-24 04:30N 35°27' E 139°39'0 0.0
2017-Jul-24 04:01N 35°27' E 139°39'2 4.9
2017-Jul-24 03:30N 35°26' E 139°42'2 4.0
2017-Jul-24 03:01N 35°24' E 139°41'0 0.9
2017-Jul-24 02:30N 35°24' E 139°41'1 2.7
2017-Jul-24 02:00N 35°25' E 139°42'3 5.3
2017-Jul-24 01:30N 35°27' E 139°39'0 0.1
2017-Jul-24 01:00N 35°27' E 139°39'0 0.1
2017-Jul-24 00:30N 35°27' E 139°39'0 0.1
2017-Jul-24 00:00N 35°27' E 139°39'0 0.1
2017-Jul-23 23:30N 35°27' E 139°39'0 0.0
2017-Jul-23 23:01N 35°27' E 139°39'0 0.1
2017-Jul-23 22:30N 35°27' E 139°39'0 0.1
2017-Jul-23 22:00N 35°27' E 139°39'0 0.1
2017-Jul-23 21:30N 35°27' E 139°39'0 0.1
2017-Jul-23 21:00N 35°27' E 139°39'0 0.0
2017-Jul-23 20:30N 35°27' E 139°39'0 0.0
2017-Jul-23 20:00N 35°27' E 139°39'0 0.0
2017-Jul-23 19:30N 35°27' E 139°39'0 0.1
2017-Jul-23 19:00N 35°27' E 139°39'0 0.1
2017-Jul-23 18:30N 35°27' E 139°39'0 0.0
2017-Jul-23 18:00N 35°27' E 139°39'0 0.0
2017-Jul-23 17:30N 35°27' E 139°39'0 0.0
2017-Jul-23 17:00N 35°27' E 139°39'0 0.0
2017-Jul-23 16:30N 35°27' E 139°39'0 0.0
2017-Jul-23 16:00N 35°27' E 139°39'0 0.0
2017-Jul-23 15:30N 35°27' E 139°39'0 0.0
2017-Jul-23 15:00N 35°27' E 139°39'0 0.0
2017-Jul-23 14:30N 35°27' E 139°39'0 0.1
2017-Jul-23 14:00N 35°27' E 139°39'0 0.1
2017-Jul-23 13:30N 35°27' E 139°39'0 0.1
2017-Jul-23 13:01N 35°27' E 139°39'0 0.1
2017-Jul-23 12:30N 35°27' E 139°39'0 0.0
2017-Jul-23 12:00N 35°27' E 139°39'0 0.0
2017-Jul-23 11:30N 35°27' E 139°39'0 0.0
2017-Jul-23 11:01N 35°27' E 139°39'0 0.1
2017-Jul-23 10:30N 35°27' E 139°39'0 0.0
2017-Jul-23 10:00N 35°27' E 139°39'0 0.1
2017-Jul-23 09:31N 35°27' E 139°39'0 0.0
2017-Jul-23 09:00N 35°27' E 139°39'0 0.0
2017-Jul-23 08:31N 35°27' E 139°39'0 0.1
2017-Jul-23 08:00N 35°27' E 139°39'0 0.1
2017-Jul-23 07:30N 35°27' E 139°39'0 0.1
2017-Jul-23 07:00N 35°27' E 139°39'0 0.0
2017-Jul-23 06:30N 35°27' E 139°39'0 0.1
2017-Jul-23 06:00N 35°27' E 139°39'0 0.0
2017-Jul-23 05:30N 35°27' E 139°39'0 0.0
2017-Jul-23 05:00N 35°27' E 139°39'0 0.0
2017-Jul-23 04:30N 35°27' E 139°39'0 0.0
2017-Jul-23 04:01N 35°27' E 139°39'0 0.1
2017-Jul-23 03:31N 35°27' E 139°39'0 0.1
2017-Jul-23 03:00N 35°27' E 139°39'0 0.0
2017-Jul-23 02:30N 35°27' E 139°39'0 0.0
2017-Jul-23 02:00N 35°27' E 139°39'0 0.0
2017-Jul-23 01:30N 35°27' E 139°39'0 0.0
2017-Jul-23 01:00N 35°27' E 139°39'0 0.1
2017-Jul-23 00:31N 35°27' E 139°39'0 0.0
2017-Jul-23 00:00N 35°27' E 139°39'0 0.1
2017-Jul-22 23:30N 35°27' E 139°39'1 2.8
2017-Jul-22 23:00N 35°26' E 139°41'1 2.1
2017-Jul-22 22:30N 35°26' E 139°42'2 4.6
2017-Jul-22 22:01N 35°27' E 139°45'1 1.6
2017-Jul-22 21:30N 35°28' E 139°44'0 0.0
2017-Jul-22 21:00N 35°28' E 139°44'0 0.0
2017-Jul-22 20:30N 35°28' E 139°44'0 0.0
2017-Jul-22 20:00N 35°28' E 139°44'0 0.0
2017-Jul-22 19:30N 35°28' E 139°44'4 7.8
2017-Jul-22 19:00N 35°24' E 139°42'1 1.8
2017-Jul-22 18:30N 35°24' E 139°41'1 1.9
2017-Jul-22 18:00N 35°23' E 139°40'0 0.0
2017-Jul-22 17:31N 35°23' E 139°40'0 0.0
2017-Jul-22 17:00N 35°23' E 139°40'0 0.0
2017-Jul-22 16:31N 35°23' E 139°40'1 1.0
2017-Jul-22 16:01N 35°24' E 139°40'1 1.1
2017-Jul-22 15:30N 35°24' E 139°41'0 0.1
2017-Jul-22 15:01N 35°24' E 139°41'1 1.1
2017-Jul-22 14:00N 35°23' E 139°40'0 0.0
2017-Jul-22 13:31N 35°23' E 139°40'0 0.0
2017-Jul-22 13:00N 35°23' E 139°40'0 0.0
2017-Jul-22 12:30N 35°23' E 139°40'0 0.0
2017-Jul-22 12:00N 35°23' E 139°40'0 0.0
2017-Jul-22 11:30N 35°23' E 139°40'0 0.0
2017-Jul-22 11:00N 35°23' E 139°40'4 8.0
2017-Jul-22 10:30N 35°27' E 139°41'1 2.9
2017-Jul-22 10:01N 35°28' E 139°42'1 1.4
2017-Jul-22 09:31N 35°28' E 139°41'1 2.2
2017-Jul-22 09:00N 35°28' E 139°42'0 0.0
2017-Jul-22 08:30N 35°28' E 139°42'0 0.0
2017-Jul-22 08:00N 35°28' E 139°42'0 0.0
2017-Jul-22 07:31N 35°28' E 139°42'1 2.6
2017-Jul-22 07:00N 35°27' E 139°41'0 0.5
2017-Jul-22 06:30N 35°26' E 139°41'1 2.7
2017-Jul-22 06:00N 35°27' E 139°39'0 0.0
2017-Jul-22 05:30N 35°27' E 139°39'0 0.0
2017-Jul-22 05:00N 35°27' E 139°39'0 0.0
2017-Jul-22 04:30N 35°27' E 139°39'0 0.0
2017-Jul-22 04:00N 35°27' E 139°39'0 0.0
2017-Jul-22 03:31N 35°27' E 139°39'0 0.0
2017-Jul-22 03:00N 35°27' E 139°39'0 0.0
2017-Jul-22 02:30N 35°27' E 139°39'0 0.0
2017-Jul-22 02:01N 35°27' E 139°39'0 0.0
2017-Jul-22 01:30N 35°27' E 139°39'0 0.0
2017-Jul-22 01:00N 35°27' E 139°39'0 0.0
2017-Jul-22 00:31N 35°27' E 139°39'0 0.0
2017-Jul-22 00:00N 35°27' E 139°39'0 0.0
2017-Jul-21 23:30N 35°27' E 139°39'0 0.0
2017-Jul-21 23:00N 35°27' E 139°39'0 0.0
2017-Jul-21 22:30N 35°27' E 139°39'0 0.0
2017-Jul-21 22:00N 35°27' E 139°39'0 0.0
2017-Jul-21 21:30N 35°27' E 139°39'0 0.0
2017-Jul-21 21:00N 35°27' E 139°39'0 0.0
2017-Jul-21 20:31N 35°27' E 139°39'0 0.0
2017-Jul-21 20:01N 35°27' E 139°39'0 0.0
2017-Jul-21 19:30N 35°27' E 139°39'0 0.0
2017-Jul-21 19:01N 35°27' E 139°39'0 0.0
2017-Jul-21 18:30N 35°27' E 139°39'0 0.0
2017-Jul-21 18:00N 35°27' E 139°39'0 0.0
2017-Jul-21 17:30N 35°27' E 139°39'0 0.0
2017-Jul-21 17:00N 35°27' E 139°39'0 0.0
2017-Jul-21 16:30N 35°27' E 139°39'0 0.0
2017-Jul-21 16:00N 35°27' E 139°39'0 0.0
2017-Jul-21 15:30N 35°27' E 139°39'0 0.0
2017-Jul-21 15:00N 35°27' E 139°39'0 0.0
2017-Jul-21 14:30N 35°27' E 139°39'0 0.0
2017-Jul-21 14:00N 35°27' E 139°39'0 0.0
2017-Jul-21 13:30N 35°27' E 139°39'0 0.0
2017-Jul-21 13:00N 35°27' E 139°39'0 0.0
2017-Jul-21 12:30N 35°27' E 139°39'0 0.0
2017-Jul-21 12:00N 35°27' E 139°39'0 0.0
2017-Jul-21 11:30N 35°27' E 139°39'0 0.0
2017-Jul-21 11:00N 35°27' E 139°39'0 0.0
2017-Jul-21 10:30N 35°27' E 139°39'0 0.0
2017-Jul-21 10:00N 35°27' E 139°39'0 0.0
2017-Jul-21 09:30N 35°27' E 139°39'0 0.0
2017-Jul-21 09:00N 35°27' E 139°39'0 0.0
2017-Jul-21 08:30N 35°27' E 139°39'0 0.0
2017-Jul-21 08:00N 35°27' E 139°39'0 0.0
2017-Jul-21 07:30N 35°27' E 139°39'0 0.0
2017-Jul-21 07:00N 35°27' E 139°39'0 0.0
2017-Jul-21 06:30N 35°27' E 139°39'0 0.0
2017-Jul-21 06:00N 35°27' E 139°39'0 0.0
2017-Jul-21 05:30N 35°27' E 139°39'0 0.0
2017-Jul-21 05:00N 35°27' E 139°39'0 0.0
2017-Jul-21 04:30N 35°27' E 139°39'0 0.0
2017-Jul-21 04:00N 35°27' E 139°39'0 0.0
2017-Jul-21 03:30N 35°27' E 139°39'0 0.4
2017-Jul-21 03:00N 35°27' E 139°39'0 0.1
2017-Jul-21 02:30N 35°27' E 139°39'0 0.0
2017-Jul-21 02:00N 35°27' E 139°39'2 4.7
2017-Jul-21 01:30N 35°29' E 139°42'2 3.5
2017-Jul-21 01:00N 35°30' E 139°43'0 0.3
2017-Jul-21 00:30N 35°30' E 139°43'2 3.8
2017-Jul-21 00:00N 35°28' E 139°42'1 1.8
2017-Jul-20 23:30N 35°27' E 139°42'2 4.8
2017-Jul-20 23:00N 35°27' E 139°39'0 0.0
2017-Jul-20 22:30N 35°27' E 139°39'0 0.1
2017-Jul-20 22:00N 35°27' E 139°39'0 0.0
2017-Jul-20 21:30N 35°27' E 139°39'0 0.1
2017-Jul-20 21:01N 35°27' E 139°39'0 0.1
2017-Jul-20 20:30N 35°27' E 139°39'0 0.0
2017-Jul-20 20:00N 35°27' E 139°39'0 0.1
2017-Jul-20 19:30N 35°27' E 139°39'0 0.1
2017-Jul-20 19:00N 35°27' E 139°39'0 0.1
2017-Jul-20 18:30N 35°27' E 139°39'0 0.1
2017-Jul-20 18:00N 35°27' E 139°39'0 0.1
2017-Jul-20 17:30N 35°27' E 139°39'0 0.0
2017-Jul-20 17:00N 35°27' E 139°39'0 0.1
2017-Jul-20 16:30N 35°27' E 139°39'0 0.1
2017-Jul-20 16:00N 35°27' E 139°39'0 0.0
2017-Jul-20 15:30N 35°27' E 139°39'0 0.0
2017-Jul-20 15:00N 35°27' E 139°39'0 0.0
2017-Jul-20 14:00N 35°27' E 139°39'0 0.0
2017-Jul-20 13:30N 35°27' E 139°39'0 0.1
2017-Jul-20 13:01N 35°27' E 139°39'0 0.0
2017-Jul-20 12:30N 35°27' E 139°39'0 0.1
2017-Jul-20 12:00N 35°27' E 139°39'0 0.0
2017-Jul-20 11:30N 35°27' E 139°39'0 0.0
2017-Jul-20 11:00N 35°27' E 139°39'0 0.0
2017-Jul-20 10:30N 35°27' E 139°39'0 0.1
2017-Jul-20 10:00N 35°27' E 139°39'0 0.7
2017-Jul-20 09:30N 35°27' E 139°39'1 2.8
2017-Jul-20 09:00N 35°26' E 139°41'1 2.1
2017-Jul-20 08:30N 35°27' E 139°42'0 0.6
2017-Jul-20 08:01N 35°27' E 139°42'0 0.0
2017-Jul-20 07:30N 35°27' E 139°42'0 0.0
2017-Jul-20 07:00N 35°27' E 139°42'0 0.7
2017-Jul-20 06:30N 35°27' E 139°42'0 0.7
2017-Jul-20 06:00N 35°27' E 139°41'2 3.5
2017-Jul-20 05:30N 35°26' E 139°43'1 2.6
2017-Jul-20 05:01N 35°26' E 139°42'2 4.0
2017-Jul-20 04:30N 35°27' E 139°39'0 0.0
2017-Jul-20 04:01N 35°27' E 139°39'0 0.0
2017-Jul-20 03:30N 35°27' E 139°39'0 0.0
2017-Jul-20 03:00N 35°27' E 139°39'0 0.0
2017-Jul-20 02:30N 35°27' E 139°39'0 0.0
2017-Jul-20 02:00N 35°27' E 139°39'0 0.0
2017-Jul-20 01:30N 35°27' E 139°39'0 0.0
2017-Jul-20 01:00N 35°27' E 139°39'0 0.0
2017-Jul-20 00:30N 35°27' E 139°39'0 0.0
2017-Jul-20 00:00N 35°27' E 139°39'0 0.0
2017-Jul-19 23:30N 35°27' E 139°39'2 3.7
2017-Jul-19 23:00N 35°28' E 139°41'0 0.6
2017-Jul-19 22:30N 35°28' E 139°41'2 3.5
2017-Jul-19 22:00N 35°27' E 139°43'1 2.1
2017-Jul-19 21:31N 35°27' E 139°44'2 4.5
2017-Jul-19 21:00N 35°27' E 139°41'1 2.4
2017-Jul-19 20:30N 35°27' E 139°40'0 0.0
2017-Jul-19 20:00N 35°27' E 139°40'0 0.0
2017-Jul-19 19:30N 35°27' E 139°40'0 0.0
2017-Jul-19 19:01N 35°27' E 139°40'0 0.0
2017-Jul-19 18:31N 35°27' E 139°40'0 0.0
2017-Jul-19 18:00N 35°27' E 139°40'0 0.0
2017-Jul-19 17:31N 35°27' E 139°40'0 0.0
2017-Jul-19 17:00N 35°27' E 139°40'0 0.0
2017-Jul-19 16:30N 35°27' E 139°40'0 0.0
2017-Jul-19 16:00N 35°27' E 139°40'0 0.0
2017-Jul-19 15:30N 35°27' E 139°40'0 0.0
2017-Jul-19 15:00N 35°27' E 139°40'0 0.0
2017-Jul-19 14:30N 35°27' E 139°40'0 0.0
2017-Jul-19 14:00N 35°27' E 139°40'0 0.0
2017-Jul-19 13:30N 35°27' E 139°40'0 0.0
2017-Jul-19 13:01N 35°27' E 139°40'0 0.0
2017-Jul-19 12:31N 35°27' E 139°40'0 0.0
2017-Jul-19 12:00N 35°27' E 139°40'0 0.0
2017-Jul-19 11:30N 35°27' E 139°40'0 0.0
2017-Jul-19 11:00N 35°27' E 139°40'0 0.0
2017-Jul-19 10:30N 35°27' E 139°40'0 0.0
2017-Jul-19 10:00N 35°27' E 139°40'0 0.0
2017-Jul-19 09:30N 35°27' E 139°40'0 0.0
2017-Jul-19 09:00N 35°27' E 139°40'0 0.0
2017-Jul-19 08:30N 35°27' E 139°40'2 3.8
2017-Jul-19 08:00N 35°27' E 139°42'3 5.5
2017-Jul-19 07:30N 35°29' E 139°45'0 0.1
2017-Jul-19 07:01N 35°29' E 139°45'1 1.7
2017-Jul-19 06:31N 35°29' E 139°46'0 0.0
2017-Jul-19 06:00N 35°29' E 139°46'0 0.1
2017-Jul-19 05:30N 35°29' E 139°46'1 2.7
2017-Jul-19 05:00N 35°29' E 139°47'0 0.0
2017-Jul-19 04:30N 35°29' E 139°47'0 0.0
2017-Jul-19 04:00N 35°29' E 139°47'0 0.2
2017-Jul-19 03:30N 35°29' E 139°47'0 0.2
2017-Jul-19 03:00N 35°29' E 139°47'1 1.7
2017-Jul-19 02:31N 35°28' E 139°47'2 4.0
2017-Jul-19 02:00N 35°27' E 139°46'1 2.6
2017-Jul-19 01:31N 35°26' E 139°44'2 4.0
2017-Jul-19 01:00N 35°27' E 139°42'2 3.7
2017-Jul-19 00:30N 35°27' E 139°40'0 0.0
2017-Jul-19 00:01N 35°27' E 139°40'0 0.0
2017-Jul-18 23:30N 35°27' E 139°40'0 0.0
2017-Jul-18 23:00N 35°27' E 139°40'0 0.0
2017-Jul-18 22:30N 35°27' E 139°40'0 0.0
2017-Jul-18 22:00N 35°27' E 139°40'0 0.0
2017-Jul-18 21:30N 35°27' E 139°40'0 0.0
2017-Jul-18 21:01N 35°27' E 139°40'0 0.0
2017-Jul-18 20:30N 35°27' E 139°40'0 0.0
2017-Jul-18 20:00N 35°27' E 139°40'0 0.0
2017-Jul-18 19:30N 35°27' E 139°40'0 0.0
2017-Jul-18 19:00N 35°27' E 139°40'0 0.0
2017-Jul-18 18:30N 35°27' E 139°40'0 0.0
2017-Jul-18 18:00N 35°27' E 139°40'0 0.0
2017-Jul-18 17:30N 35°27' E 139°40'0 0.0
2017-Jul-18 17:00N 35°27' E 139°40'0 0.0
2017-Jul-18 16:30N 35°27' E 139°40'0 0.0
2017-Jul-18 16:01N 35°27' E 139°40'0 0.0
2017-Jul-18 15:30N 35°27' E 139°40'0 0.0
2017-Jul-18 15:00N 35°27' E 139°40'0 0.0
2017-Jul-18 14:00N 35°27' E 139°40'0 0.0
2017-Jul-18 13:30N 35°27' E 139°40'0 0.0
2017-Jul-18 13:00N 35°27' E 139°40'0 0.0
2017-Jul-18 12:30N 35°27' E 139°40'0 0.0
2017-Jul-18 12:00N 35°27' E 139°40'0 0.0
2017-Jul-18 11:30N 35°27' E 139°40'0 0.0
2017-Jul-18 11:00N 35°27' E 139°40'0 0.0
2017-Jul-18 10:30N 35°27' E 139°40'0 0.0
2017-Jul-18 10:00N 35°27' E 139°40'0 0.0
2017-Jul-18 09:30N 35°27' E 139°40'0 0.0
2017-Jul-18 09:00N 35°27' E 139°40'  

Dump ship's entire track history